createdAt,value
2024-04-08T00:35:24.682Z,61.50
2024-04-08T00:40:26.729Z,61.30
2024-04-08T00:45:28.778Z,61.50
2024-04-08T00:50:31.120Z,61.50
2024-04-08T00:55:35.373Z,61.60
2024-04-08T01:00:37.370Z,61.60
2024-04-08T01:05:40.130Z,61.60
2024-04-08T01:10:42.501Z,61.60
2024-04-08T01:15:44.953Z,61.60
2024-04-08T01:20:46.917Z,61.70
2024-04-08T01:25:48.948Z,61.80
2024-04-08T01:30:51.236Z,61.70
2024-04-08T01:35:54.755Z,61.50
2024-04-08T01:40:57.069Z,61.50
2024-04-08T01:45:59.022Z,62.20
2024-04-08T01:51:00.940Z,61.60
2024-04-08T01:56:02.897Z,61.40
2024-04-08T02:01:04.971Z,61.50
2024-04-08T02:06:07.045Z,61.50
2024-04-08T02:11:08.986Z,62.20
2024-04-08T02:16:11.310Z,61.70
2024-04-08T02:21:13.644Z,61.80
2024-04-08T02:26:15.736Z,61.80
2024-04-08T02:31:17.659Z,61.70
2024-04-08T02:36:19.636Z,61.90
2024-04-08T02:41:21.948Z,62.00
2024-04-08T02:46:23.868Z,62.10
2024-04-08T02:51:25.850Z,62.20
2024-04-08T02:56:27.863Z,62.10
2024-04-08T03:01:29.824Z,62.10
2024-04-08T03:06:36.363Z,62.10
2024-04-08T03:11:38.577Z,62.00
2024-04-08T03:16:40.595Z,62.00
2024-04-08T03:21:43.126Z,62.10
2024-04-08T03:26:45.078Z,62.20
2024-04-08T03:31:48.661Z,62.10
2024-04-08T03:36:50.783Z,62.50
2024-04-08T03:41:54.404Z,62.60
2024-04-08T03:46:56.438Z,62.70
2024-04-08T03:51:58.431Z,62.60
2024-04-08T03:57:00.408Z,62.80
2024-04-08T04:02:02.353Z,62.80
2024-04-08T04:07:04.379Z,62.70
2024-04-08T04:12:08.197Z,62.70
2024-04-08T04:17:10.147Z,62.80
2024-04-08T04:22:12.090Z,62.80
2024-04-08T04:27:14.033Z,62.80
2024-04-08T04:32:16.004Z,62.90
2024-04-08T04:37:17.967Z,62.80
2024-04-08T04:42:19.994Z,62.70
2024-04-08T04:47:22.028Z,62.70
2024-04-08T04:52:24.022Z,62.80
2024-04-08T04:57:26.026Z,62.80
2024-04-08T05:02:28.007Z,62.80
2024-04-08T05:07:29.945Z,62.70
2024-04-08T05:12:31.919Z,62.80
2024-04-08T05:17:34.005Z,62.90
2024-04-08T05:22:35.989Z,62.90
2024-04-08T05:27:37.912Z,63.00
2024-04-08T05:32:39.951Z,63.10
2024-04-08T05:37:41.934Z,63.20
2024-04-08T05:42:47.339Z,63.20
2024-04-08T05:47:55.455Z,63.30
2024-04-08T05:52:57.589Z,63.30
2024-04-08T05:57:59.680Z,63.50
2024-04-08T06:03:01.942Z,63.60
2024-04-08T06:08:04.477Z,63.80
2024-04-08T06:13:07.085Z,63.90
2024-04-08T06:18:09.288Z,64.00
2024-04-08T06:23:11.314Z,64.20
2024-04-08T06:28:13.380Z,64.40
2024-04-08T06:33:15.422Z,64.50
2024-04-08T06:38:17.461Z,64.60
2024-04-08T06:43:19.501Z,64.70
2024-04-08T06:48:21.439Z,64.80
2024-04-08T06:53:24.993Z,64.90
2024-04-08T06:58:27.060Z,65.40
2024-04-08T07:03:29.019Z,65.10
2024-04-08T07:08:31.059Z,65.10
2024-04-08T07:13:33.054Z,65.30
2024-04-08T07:18:35.673Z,65.40
2024-04-08T07:23:37.949Z,65.40
2024-04-08T07:28:41.616Z,65.60
2024-04-08T07:33:43.598Z,65.60
2024-04-08T07:38:57.433Z,65.80
2024-04-08T07:44:04.475Z,65.90
2024-04-08T07:49:06.474Z,66.10
2024-04-08T07:54:08.652Z,66.10
2024-04-08T07:59:10.682Z,67.00
2024-04-08T08:04:13.124Z,66.40
2024-04-08T08:09:15.144Z,66.50
2024-04-08T08:14:17.217Z,66.50
2024-04-08T08:19:19.173Z,66.30
2024-04-08T08:24:21.567Z,66.50
2024-04-08T08:29:23.652Z,66.50
2024-04-08T08:34:25.572Z,66.40
2024-04-08T08:39:27.512Z,66.10
2024-04-08T08:44:31.736Z,66.10
2024-04-08T08:49:33.693Z,65.90
2024-04-08T08:54:35.635Z,66.00
2024-04-08T08:59:39.748Z,66.00
2024-04-08T09:04:42.718Z,65.80
2024-04-08T09:09:57.997Z,65.80
2024-04-08T09:15:00.022Z,65.70
2024-04-08T09:20:05.286Z,65.80
2024-04-08T09:25:13.867Z,65.60
2024-04-08T09:30:16.671Z,65.80
2024-04-08T09:35:18.705Z,65.90
2024-04-08T09:40:22.053Z,66.10
2024-04-08T09:45:24.090Z,66.10
2024-04-08T09:50:28.631Z,66.10
2024-04-08T09:55:30.985Z,65.90
2024-04-08T10:00:36.711Z,65.80
2024-04-08T10:05:39.691Z,66.00
2024-04-08T10:10:41.932Z,65.90
2024-04-08T10:15:43.909Z,65.80
2024-04-08T10:20:46.030Z,65.70
2024-04-08T10:25:50.830Z,65.60
2024-04-08T10:30:52.870Z,66.00
2024-04-08T10:35:55.598Z,66.90
2024-04-08T10:41:07.437Z,66.00
2024-04-08T10:46:18.975Z,66.00
2024-04-08T10:51:21.088Z,65.90
2024-04-08T10:56:23.269Z,66.00
2024-04-08T11:01:26.388Z,65.90
2024-04-08T11:06:29.812Z,65.90
2024-04-08T11:11:33.062Z,65.70
2024-04-08T11:16:35.170Z,65.70
2024-04-08T11:21:37.268Z,65.90
2024-04-08T11:26:48.679Z,65.90
2024-04-08T11:31:54.929Z,65.70
2024-04-08T11:36:56.924Z,65.70
2024-04-08T11:41:58.862Z,65.60
2024-04-08T11:47:01.280Z,65.50
2024-04-08T11:52:06.751Z,65.50
2024-04-08T11:57:10.345Z,65.40
2024-04-08T12:02:12.407Z,65.40
2024-04-08T12:07:15.045Z,65.30
2024-04-08T12:12:18.664Z,65.30
2024-04-08T12:17:20.678Z,65.20
2024-04-08T12:22:22.884Z,64.90
2024-04-08T12:27:28.944Z,64.70
2024-04-08T12:32:30.955Z,64.80
2024-04-08T12:37:33.025Z,64.80
2024-04-08T12:42:34.966Z,64.90
2024-04-08T12:47:39.718Z,64.70
2024-04-08T12:52:42.167Z,64.70
2024-04-08T12:57:45.103Z,64.60
2024-04-08T13:02:47.367Z,64.50
2024-04-08T13:07:49.388Z,64.60
2024-04-08T13:12:51.456Z,64.50
2024-04-08T13:17:53.530Z,64.30
2024-04-08T13:22:55.682Z,64.40
2024-04-08T13:27:57.690Z,65.00
2024-04-08T13:33:00.389Z,64.20
2024-04-08T13:38:02.496Z,64.20
2024-04-08T13:43:04.573Z,64.00
2024-04-08T13:48:07.498Z,64.10
2024-04-08T13:53:09.491Z,64.00
2024-04-08T13:58:11.439Z,64.10
2024-04-08T14:03:13.436Z,64.10
2024-04-08T14:08:15.465Z,64.10
2024-04-08T14:13:17.498Z,64.30
2024-04-08T14:18:19.684Z,64.30
2024-04-08T14:23:21.701Z,64.20
2024-04-08T14:28:23.655Z,63.90
2024-04-08T14:33:25.935Z,63.80
2024-04-08T14:38:46.999Z,63.80
2024-04-08T14:43:59.829Z,63.60
2024-04-08T14:49:06.011Z,63.50
2024-04-08T14:54:08.127Z,63.30
2024-04-08T14:59:10.395Z,63.10
2024-04-08T15:04:12.463Z,62.90
2024-04-08T15:09:14.528Z,62.60
2024-04-08T15:14:16.634Z,62.40
2024-04-08T15:19:18.706Z,62.20
2024-04-08T15:24:20.679Z,62.30
2024-04-08T15:29:22.741Z,62.30
2024-04-08T15:34:24.973Z,62.30
2024-04-08T15:39:27.225Z,62.20
2024-04-08T15:44:29.295Z,62.20
2024-04-08T15:49:31.346Z,62.00
2024-04-08T15:54:34.980Z,61.80
2024-04-08T15:59:36.977Z,61.60
2024-04-08T16:04:39.204Z,61.50
2024-04-08T16:09:41.345Z,61.40
2024-04-08T16:14:43.488Z,61.40
2024-04-08T16:19:48.276Z,61.40
2024-04-08T16:24:52.275Z,61.30
2024-04-08T16:29:54.326Z,61.20
2024-04-08T16:34:56.291Z,61.10
2024-04-08T16:39:58.270Z,61.00
2024-04-08T16:45:00.355Z,60.90
2024-04-08T16:50:02.367Z,60.70
2024-04-08T16:55:05.120Z,60.70
2024-04-08T17:00:07.839Z,60.60
2024-04-08T17:05:10.014Z,60.70
2024-04-08T17:10:12.060Z,60.50
2024-04-08T17:15:14.193Z,60.50
2024-04-08T17:20:16.292Z,60.40
2024-04-08T17:25:18.846Z,60.30
2024-04-08T17:30:20.935Z,60.30
2024-04-08T17:35:22.963Z,60.30
2024-04-08T17:40:25.325Z,60.90
2024-04-08T17:45:27.623Z,60.20
2024-04-08T17:50:29.819Z,60.20
2024-04-08T17:55:32.579Z,60.10
2024-04-08T18:00:37.583Z,60.00
2024-04-08T18:05:39.739Z,60.00
2024-04-08T18:10:41.993Z,59.90
2024-04-08T18:15:44.076Z,59.90
2024-04-08T18:20:46.137Z,59.80
2024-04-08T18:25:57.889Z,59.70
2024-04-08T18:31:03.584Z,59.70
2024-04-08T18:36:07.861Z,59.70
2024-04-08T18:41:15.261Z,59.70
2024-04-08T18:46:25.208Z,59.60
2024-04-08T18:51:27.397Z,59.50
2024-04-08T18:56:29.385Z,59.40
2024-04-08T19:01:31.683Z,59.30
2024-04-08T19:06:34.608Z,59.40
2024-04-08T19:11:45.552Z,59.30
2024-04-08T19:16:56.627Z,59.20
2024-04-08T19:21:58.674Z,59.10
2024-04-08T19:27:01.096Z,59.00
2024-04-08T19:32:03.276Z,58.90
2024-04-08T19:37:07.571Z,58.80
2024-04-08T19:42:10.084Z,58.70
2024-04-08T19:47:13.026Z,58.70
2024-04-08T19:52:15.097Z,58.60
2024-04-08T19:57:17.314Z,58.60
2024-04-08T20:02:19.416Z,58.40
2024-04-08T20:07:21.819Z,58.30
2024-04-08T20:12:23.847Z,58.10
2024-04-08T20:17:27.038Z,58.00
2024-04-08T20:22:29.067Z,57.90
2024-04-08T20:27:31.276Z,57.80
2024-04-08T20:32:33.440Z,57.70
2024-04-08T20:37:35.498Z,57.70
2024-04-08T20:42:37.550Z,57.60
2024-04-08T20:47:39.613Z,57.50
2024-04-08T20:52:41.686Z,57.50
2024-04-08T20:57:43.650Z,57.40
2024-04-08T21:02:50.132Z,57.20
2024-04-08T21:07:52.141Z,57.10
2024-04-08T21:12:54.236Z,57.00
2024-04-08T21:17:58.439Z,57.00
2024-04-08T21:23:02.600Z,56.90
2024-04-08T21:28:06.471Z,57.50
2024-04-08T21:33:08.723Z,57.00
2024-04-08T21:38:12.818Z,57.00
2024-04-08T21:43:14.838Z,56.80
2024-04-08T21:48:16.953Z,56.90
2024-04-08T21:53:21.604Z,56.80
2024-04-08T21:58:24.288Z,56.80
2024-04-08T22:03:27.371Z,56.70
2024-04-08T22:08:29.821Z,56.90
2024-04-08T22:13:31.957Z,56.70
2024-04-08T22:18:34.273Z,56.70
2024-04-08T22:23:36.443Z,57.30
2024-04-08T22:28:38.489Z,56.80
2024-04-08T22:33:40.656Z,56.80
2024-04-08T22:38:42.765Z,56.80
2024-04-08T22:43:44.696Z,56.90
2024-04-08T22:48:46.742Z,56.80
2024-04-08T22:53:48.716Z,56.90
2024-04-08T22:58:50.705Z,56.90
2024-04-08T23:03:52.945Z,56.80
2024-04-08T23:08:55.069Z,56.70
2024-04-08T23:13:57.069Z,56.80
2024-04-08T23:18:59.185Z,56.80
2024-04-08T23:24:01.328Z,56.80
2024-04-08T23:29:03.397Z,56.70
2024-04-08T23:34:07.748Z,56.80
2024-04-08T23:39:12.297Z,56.80
2024-04-08T23:44:15.047Z,56.80
2024-04-08T23:49:17.071Z,56.80
2024-04-08T23:54:19.084Z,56.80
2024-04-08T23:59:21.542Z,56.70
